Time;durP1;ratioP1;P1;durP2;ratioP2;P2;SDS_P1;SDS_P2;PMS_P1;PMS_P2;Temp;Humidity;BMP_temperature;BMP_pressure;BME280_temperature;BME280_humidity;BME280_pressure;Samples;Min_cycle;Max_cycle;Signal;HPM_P1;HPM_P2
2023/05/03 00:01:08;;;;;;;24.43;16.87;;;10.00;94.00;;;;;;5075598;28;20479;-60
2023/05/03 00:03:36;;;;;;;33.40;19.17;;;10.00;94.10;;;;;;5063539;27;26297;-60
2023/05/03 00:06:10;;;;;;;24.73;16.40;;;10.00;93.90;;;;;;5102696;27;20529;-60
2023/05/03 00:08:36;;;;;;;30.83;18.00;;;10.00;93.90;;;;;;5073096;28;20533;-60
2023/05/03 00:11:03;;;;;;;22.13;15.00;;;10.00;93.90;;;;;;5075313;28;20490;-60
2023/05/03 00:13:30;;;;;;;41.70;19.10;;;9.80;94.40;;;;;;5074270;28;20846;-60
2023/05/03 00:15:58;;;;;;;26.97;16.53;;;9.70;94.60;;;;;;5073954;28;20487;-60
2023/05/03 00:18:25;;;;;;;37.70;22.23;;;9.60;94.70;;;;;;5071869;28;20553;-59
2023/05/03 00:20:54;;;;;;;30.13;15.73;;;9.60;94.80;;;;;;5070948;28;20477;-60
2023/05/03 00:23:20;;;;;;;30.70;18.67;;;9.50;94.80;;;;;;5073283;28;20466;-60
2023/05/03 00:25:51;;;;;;;25.93;16.47;;;9.50;94.80;;;;;;5064085;28;20842;-61
2023/05/03 00:28:18;;;;;;;28.43;16.27;;;9.50;95.00;;;;;;5073242;28;20497;-59
2023/05/03 00:30:44;;;;;;;20.47;14.13;;;9.40;94.80;;;;;;5073729;28;20604;-59
2023/05/03 00:33:12;;;;;;;27.70;17.17;;;9.40;94.90;;;;;;5074551;28;20525;-59
2023/05/03 00:35:39;;;;;;;27.37;15.67;;;9.20;95.00;;;;;;5090163;27;20485;-59
2023/05/03 00:38:06;;;;;;;25.60;17.80;;;9.20;95.00;;;;;;5070943;28;20516;-60
2023/05/03 00:40:32;;;;;;;34.70;21.10;;;9.30;95.20;;;;;;5071266;28;20951;-59
2023/05/03 00:42:59;;;;;;;26.70;16.40;;;9.30;95.10;;;;;;5073629;28;20482;-59
2023/05/03 00:45:26;;;;;;;34.63;20.30;;;9.30;95.00;;;;;;5072150;28;20478;-59
2023/05/03 00:47:53;;;;;;;26.60;15.70;;;9.30;95.00;;;;;;5074923;28;20490;-59
2023/05/03 00:50:22;;;;;;;29.87;17.73;;;9.30;94.80;;;;;;5088839;27;20525;-59
2023/05/03 00:52:48;;;;;;;23.47;16.20;;;9.20;94.90;;;;;;5071382;28;20470;-60
2023/05/03 00:55:15;;;;;;;26.93;16.50;;;9.20;95.00;;;;;;5071888;28;20482;-59
2023/05/03 00:57:42;;;;;;;29.63;18.10;;;9.10;95.00;;;;;;5073174;28;20497;-59
2023/05/03 01:00:12;;;;;;;23.13;16.00;;;9.00;95.00;;;;;;5069089;28;20562;-59
2023/05/03 01:02:39;;;;;;;28.67;17.73;;;9.00;95.20;;;;;;5073835;28;20816;-59
2023/05/03 01:05:07;;;;;;;26.50;15.70;;;9.00;95.20;;;;;;5080638;27;20476;-59
2023/05/03 01:07:43;;;;;;;32.80;18.83;;;9.00;95.10;;;;;;5087296;27;20478;-59
2023/05/03 01:10:22;;;;;;;24.70;16.93;;;8.90;95.10;;;;;;5073860;28;20485;-60
2023/05/03 01:12:55;;;;;;;25.67;16.17;;;8.80;95.30;;;;;;5073316;28;20505;-59
2023/05/03 01:15:36;;;;;;;24.93;15.47;;;8.90;95.30;;;;;;5071617;28;20852;-60
2023/05/03 01:18:11;;;;;;;27.40;15.30;;;8.90;95.20;;;;;;5073494;28;20833;-59
2023/05/03 01:20:38;;;;;;;32.87;15.47;;;8.80;95.10;;;;;;5075838;27;20476;-60
2023/05/03 01:23:26;;;;;;;29.23;15.87;;;8.80;95.20;;;;;;5088842;27;20482;-59
2023/05/03 01:25:54;;;;;;;30.30;14.00;;;8.60;95.20;;;;;;5074721;28;20486;-60
2023/05/03 01:28:20;;;;;;;32.10;16.87;;;8.60;95.10;;;;;;5072836;27;21101;-60
2023/05/03 01:30:50;;;;;;;25.90;11.77;;;8.60;95.30;;;;;;5073871;28;20478;-60
2023/05/03 01:33:25;;;;;;;32.80;14.57;;;8.50;95.20;;;;;;5072661;28;20927;-60
2023/05/03 01:35:59;;;;;;;23.00;14.00;;;8.50;95.30;;;;;;5072775;28;20485;-59
2023/05/03 01:38:28;;;;;;;38.57;19.00;;;8.30;95.70;;;;;;5072304;28;21043;-60
2023/05/03 01:41:02;;;;;;;24.77;13.00;;;8.30;95.70;;;;;;5072094;28;20475;-60
2023/05/03 01:43:30;;;;;;;40.23;20.30;;;8.20;95.60;;;;;;5072266;28;20489;-60
2023/05/03 01:45:57;;;;;;;27.50;12.07;;;8.20;95.70;;;;;;5072111;28;21114;-59
2023/05/03 01:48:24;;;;;;;32.40;17.43;;;8.20;95.90;;;;;;5072010;28;20486;-60
2023/05/03 01:50:50;;;;;;;23.17;14.37;;;8.10;96.00;;;;;;5072719;28;20474;-60
2023/05/03 01:53:17;;;;;;;26.20;14.93;;;8.10;96.10;;;;;;5073704;28;20475;-60
2023/05/03 01:55:44;;;;;;;38.53;14.33;;;8.00;96.20;;;;;;5072865;28;20943;-60
2023/05/03 01:58:12;;;;;;;27.83;13.97;;;8.00;96.30;;;;;;5094575;27;21016;-59
2023/05/03 02:00:39;;;;;;;23.80;13.57;;;7.90;96.40;;;;;;5071455;28;20825;-60
2023/05/03 02:03:05;;;;;;;26.20;15.80;;;8.00;96.50;;;;;;5072918;28;20852;-59
2023/05/03 02:05:32;;;;;;;33.00;18.10;;;8.10;96.30;;;;;;5072548;28;21023;-60
2023/05/03 02:07:59;;;;;;;24.80;13.30;;;8.10;96.20;;;;;;5092008;27;20552;-60
2023/05/03 02:10:25;;;;;;;42.40;22.07;;;8.10;95.90;;;;;;5071155;28;20798;-60
2023/05/03 02:12:52;;;;;;;27.13;14.70;;;8.10;95.80;;;;;;5094305;27;21039;-59
2023/05/03 02:15:20;;;;;;;30.27;15.47;;;7.90;96.20;;;;;;5074502;28;20795;-60
2023/05/03 02:17:48;;;;;;;31.90;15.87;;;7.90;96.30;;;;;;5070102;28;20474;-59
2023/05/03 02:20:15;;;;;;;24.00;14.27;;;7.90;96.20;;;;;;5072998;28;20889;-59
2023/05/03 02:22:42;;;;;;;39.87;18.23;;;7.90;96.20;;;;;;5069731;28;20482;-59
2023/05/03 02:25:08;;;;;;;25.47;14.30;;;7.90;96.20;;;;;;5074945;28;21130;-59
2023/05/03 02:27:35;;;;;;;38.30;17.00;;;7.90;96.10;;;;;;5071921;28;20981;-59
2023/05/03 02:30:03;;;;;;;26.47;13.47;;;7.90;96.00;;;;;;5071420;28;20683;-59
2023/05/03 02:32:31;;;;;;;50.93;21.53;;;7.90;96.00;;;;;;5072645;28;20565;-59
2023/05/03 02:34:58;;;;;;;27.00;12.73;;;7.90;96.00;;;;;;5072573;28;20475;-59
2023/05/03 02:37:24;;;;;;;21.47;11.90;;;7.90;95.90;;;;;;5070624;27;20471;-60
2023/05/03 02:39:51;;;;;;;22.83;13.17;;;7.80;95.80;;;;;;5070347;28;20477;-59
2023/05/03 02:42:18;;;;;;;31.37;16.60;;;7.80;96.00;;;;;;5073065;28;20474;-59
2023/05/03 02:44:45;;;;;;;21.70;12.00;;;7.80;95.90;;;;;;5072590;28;21025;-59
2023/05/03 02:47:12;;;;;;;23.23;13.53;;;7.80;95.80;;;;;;5071708;28;20467;-59
2023/05/03 02:49:40;;;;;;;32.93;16.00;;;7.70;95.70;;;;;;5069969;28;20482;-60
2023/05/03 02:52:07;;;;;;;37.37;15.17;;;7.60;95.90;;;;;;5069133;28;20485;-59
2023/05/03 02:54:33;;;;;;;30.40;15.70;;;7.60;96.00;;;;;;5070997;28;20540;-59
2023/05/03 02:57:01;;;;;;;26.57;13.03;;;7.50;96.00;;;;;;5069406;28;20482;-59
2023/05/03 02:59:27;;;;;;;36.63;16.00;;;7.40;96.10;;;;;;5071284;28;20506;-59
2023/05/03 03:01:54;;;;;;;19.07;10.97;;;7.40;96.20;;;;;;5073108;28;20474;-59
2023/05/03 03:04:21;;;;;;;33.33;16.43;;;7.40;96.20;;;;;;5072567;28;20474;-59
2023/05/03 03:06:52;;;;;;;20.67;11.00;;;7.40;96.40;;;;;;5078052;28;20619;-59
2023/05/03 03:09:18;;;;;;;36.43;13.13;;;7.40;96.20;;;;;;5075792;28;20504;-59
2023/05/03 03:11:45;;;;;;;30.80;13.00;;;7.40;96.40;;;;;;5079782;28;20508;-60
2023/05/03 03:14:12;;;;;;;19.83;10.60;;;7.30;96.00;;;;;;5075636;28;20534;-59
2023/05/03 03:16:39;;;;;;;30.17;11.70;;;7.40;96.10;;;;;;5086460;28;20865;-59
2023/05/03 03:19:05;;;;;;;36.07;14.07;;;7.30;96.30;;;;;;5093561;28;20929;-59
2023/05/03 03:21:33;;;;;;;35.43;13.63;;;7.30;96.30;;;;;;5087542;28;20872;-59
2023/05/03 03:24:02;;;;;;;37.83;12.97;;;7.20;96.20;;;;;;5080510;28;20505;-59
2023/05/03 03:26:29;;;;;;;56.50;19.43;;;7.20;96.50;;;;;;5089391;27;20481;-59
2023/05/03 03:28:55;;;;;;;33.27;11.97;;;7.20;96.60;;;;;;5088603;27;20505;-59
2023/05/03 03:31:24;;;;;;;36.90;15.20;;;7.20;96.40;;;;;;5081949;28;20474;-59
2023/05/03 03:33:51;;;;;;;20.07;10.50;;;7.20;96.50;;;;;;5091687;27;20509;-59
2023/05/03 03:36:18;;;;;;;34.80;11.23;;;;;;;;;;5083979;27;20500;-59
2023/05/03 03:38:45;;;;;;;88.57;15.87;;;;;;;;;;5093897;27;20465;-59
2023/05/03 03:41:13;;;;;;;88.60;16.73;;;7.20;96.10;;;;;;5093654;27;20465;-59
2023/05/03 03:43:40;;;;;;;57.17;12.40;;;7.20;95.90;;;;;;5080659;28;20535;-59
2023/05/03 03:46:07;;;;;;;72.70;14.63;;;;;;;;;;5082754;27;20494;-59
2023/05/03 03:48:33;;;;;;;77.63;20.60;;;7.20;95.90;;;;;;5092987;28;20473;-59
2023/05/03 03:51:00;;;;;;;36.07;12.83;;;;;;;;;;5089459;28;20482;-59
2023/05/03 03:53:28;;;;;;;91.10;17.53;;;;;;;;;;5076355;28;20993;-60
2023/05/03 03:55:55;;;;;;;41.77;10.90;;;;;;;;;;5088830;27;20518;-59
2023/05/03 03:58:23;;;;;;;60.47;17.57;;;7.00;96.30;;;;;;5077630;28;20478;-59
2023/05/03 04:00:50;;;;;;;53.87;13.10;;;;;;;;;;5060743;28;20482;-59
2023/05/03 04:03:17;;;;;;;41.83;11.80;;;7.00;96.40;;;;;;5078696;28;20485;-59
2023/05/03 04:05:44;;;;;;;59.17;13.47;;;;;;;;;;5081170;27;20478;-59
2023/05/03 04:08:11;;;;;;;64.87;17.67;;;7.00;96.50;;;;;;5091805;28;20830;-59
2023/05/03 04:10:38;;;;;;;44.47;14.77;;;6.90;96.60;;;;;;5097010;28;20474;-61
2023/05/03 04:13:05;;;;;;;35.63;12.33;;;;;;;;;;5080672;28;20477;-59
2023/05/03 04:15:33;;;;;;;45.93;16.17;;;6.80;96.60;;;;;;5075066;27;20566;-59
2023/05/03 04:17:59;;;;;;;33.50;13.37;;;6.90;96.70;;;;;;5076112;28;20508;-59
2023/05/03 04:20:26;;;;;;;57.50;19.20;;;6.80;96.70;;;;;;5069412;28;20814;-59
2023/05/03 04:22:53;;;;;;;27.33;12.23;;;6.70;96.80;;;;;;5071752;28;20548;-59
2023/05/03 04:25:20;;;;;;;33.27;13.00;;;6.70;97.00;;;;;;5082320;27;20534;-59
2023/05/03 04:27:47;;;;;;;49.23;15.13;;;6.70;97.10;;;;;;5084097;28;20502;-59
2023/05/03 04:30:16;;;;;;;43.20;14.33;;;6.70;97.00;;;;;;5073340;28;20486;-59
2023/05/03 04:32:44;;;;;;;34.20;12.07;;;6.80;96.80;;;;;;5094053;27;20862;-60
2023/05/03 04:35:11;;;;;;;34.27;12.03;;;6.90;96.70;;;;;;5094301;27;20479;-60
2023/05/03 04:37:38;;;;;;;105.93;16.53;;;;;;;;;;5077213;28;20524;-59
2023/05/03 04:40:08;;;;;;;57.47;13.97;;;7.00;96.60;;;;;;5073762;27;20829;-59
2023/05/03 04:42:36;;;;;;;133.17;16.47;;;;;;;;;;5070772;27;20485;-59
2023/05/03 04:45:05;;;;;;;59.33;12.57;;;;;;;;;;5087040;28;20894;-59
2023/05/03 04:47:32;;;;;;;132.93;20.23;;;;;;;;;;5069804;28;20499;-59
2023/05/03 04:50:02;;;;;;;84.90;15.47;;;;;;;;;;5076569;28;20484;-59
2023/05/03 04:52:29;;;;;;;58.33;16.37;;;;;;;;;;5081852;28;20477;-59
2023/05/03 04:54:56;;;;;;;32.87;11.93;;;;;;;;;;5090738;27;20501;-59
2023/05/03 04:57:23;;;;;;;77.43;16.20;;;;;;;;;;5077607;28;20477;-59
2023/05/03 04:59:52;;;;;;;49.20;14.67;;;;;;;;;;5071441;28;20914;-59
2023/05/03 05:02:19;;;;;;;52.53;16.20;;;;;;;;;;5091068;27;20555;-59
2023/05/03 05:04:46;;;;;;;74.00;15.60;;;;;;;;;;5101063;27;20478;-59
2023/05/03 05:07:15;;;;;;;35.70;12.20;;;7.30;96.40;;;;;;5091123;27;20499;-59
2023/05/03 05:09:41;;;;;;;40.07;14.23;;;7.30;96.60;;;;;;5086590;28;20469;-59
2023/05/03 05:12:08;;;;;;;79.97;15.87;;;;;;;;;;5064503;28;20489;-60
2023/05/03 05:14:35;;;;;;;76.47;15.53;;;;;;;;;;5090021;28;20489;-59
2023/05/03 05:17:02;;;;;;;49.37;12.40;;;;;;;;;;5076546;28;20855;-59
2023/05/03 05:19:29;;;;;;;175.00;21.90;;;;;;;;;;5087509;27;20516;-59
2023/05/03 05:21:57;;;;;;;47.83;13.80;;;;;;;;;;5076656;28;20540;-59
2023/05/03 05:24:25;;;;;;;78.53;17.10;;;8.10;96.60;;;;;;5076568;28;20490;-59
2023/05/03 05:26:51;;;;;;;32.50;12.67;;;8.20;96.70;;;;;;5076529;28;20471;-59
2023/05/03 05:29:19;;;;;;;54.10;14.40;;;;;;;;;;5089612;28;20853;-59
2023/05/03 05:31:46;;;;;;;39.07;12.73;;;;;;;;;;5088058;28;20484;-59
2023/05/03 05:34:13;;;;;;;49.17;13.70;;;;;;;;;;5079775;28;20922;-60
2023/05/03 05:36:40;;;;;;;33.40;10.40;;;9.20;95.60;;;;;;5082785;28;20535;-60
2023/05/03 05:39:06;;;;;;;28.67;11.60;;;9.30;95.00;;;;;;5079898;28;20820;-60
2023/05/03 05:41:34;;;;;;;43.83;15.93;;;9.30;95.30;;;;;;5065757;28;20481;-60
2023/05/03 05:44:01;;;;;;;35.93;12.30;;;9.40;94.80;;;;;;5087530;28;20559;-60
2023/05/03 05:46:28;;;;;;;36.33;14.37;;;9.40;94.90;;;;;;5084649;28;20489;-60
2023/05/03 05:48:55;;;;;;;21.40;9.97;;;9.50;95.10;;;;;;5089464;28;20478;-60
2023/05/03 05:51:21;;;;;;;34.77;16.20;;;9.60;95.10;;;;;;5084778;28;21121;-60
2023/05/03 05:53:48;;;;;;;23.30;10.90;;;9.70;94.80;;;;;;5081964;28;20486;-60
2023/05/03 05:56:15;;;;;;;20.70;12.17;;;9.80;95.00;;;;;;5092275;28;20485;-60
2023/05/03 05:58:43;;;;;;;35.80;13.70;;;9.70;95.20;;;;;;5080932;28;20911;-60
2023/05/03 06:01:10;;;;;;;23.00;11.40;;;9.80;94.90;;;;;;5087789;28;20983;-60
2023/05/03 06:03:36;;;;;;;38.20;14.23;;;9.90;95.00;;;;;;5095616;27;20900;-60
2023/05/03 06:06:03;;;;;;;23.10;11.40;;;10.00;94.50;;;;;;5086723;28;20709;-60
2023/05/03 06:08:30;;;;;;;35.30;14.93;;;10.30;94.60;;;;;;5084467;28;20485;-60
2023/05/03 06:10:57;;;;;;;25.33;12.33;;;10.70;94.60;;;;;;5094686;28;20474;-60
2023/05/03 06:13:24;;;;;;;24.97;11.07;;;10.80;94.00;;;;;;5080344;28;20511;-60
2023/05/03 06:15:52;;;;;;;15.90;9.30;;;10.90;94.20;;;;;;5075356;28;20546;-60
2023/05/03 06:18:19;;;;;;;23.60;12.47;;;11.00;93.60;;;;;;5075642;28;20470;-60
2023/05/03 06:20:49;;;;;;;29.23;15.10;;;11.00;93.60;;;;;;5087562;28;20489;-60
2023/05/03 06:23:15;;;;;;;23.87;10.40;;;11.10;93.90;;;;;;5091098;28;20492;-60
2023/05/03 06:25:45;;;;;;;18.60;10.00;;;11.20;93.70;;;;;;5080055;28;20490;-60
2023/05/03 06:28:11;;;;;;;21.60;13.10;;;11.30;93.80;;;;;;5073380;28;20483;-60
2023/05/03 06:30:38;;;;;;;28.67;12.50;;;11.70;93.20;;;;;;5075419;28;20486;-60
2023/05/03 06:33:06;;;;;;;18.73;10.43;;;11.70;93.00;;;;;;5076679;28;20478;-60
2023/05/03 06:35:33;;;;;;;18.40;12.03;;;12.10;92.60;;;;;;5075993;28;20587;-60
2023/05/03 06:38:00;;;;;;;16.37;10.60;;;12.20;93.40;;;;;;5054336;28;20474;-60
2023/05/03 06:40:26;;;;;;;18.10;12.83;;;12.50;93.00;;;;;;5076885;28;20509;-60
2023/05/03 06:42:53;;;;;;;16.77;9.97;;;12.70;91.80;;;;;;5086377;28;20520;-60
2023/05/03 06:45:20;;;;;;;17.27;11.27;;;13.00;92.50;;;;;;5087619;28;20489;-61
2023/05/03 06:47:48;;;;;;;19.70;10.47;;;13.10;91.80;;;;;;5075376;28;20989;-62
2023/05/03 06:50:18;;;;;;;18.00;9.30;;;13.50;91.80;;;;;;5093262;28;20465;-61
2023/05/03 06:52:45;;;;;;;12.07;9.07;;;13.60;91.50;;;;;;5090088;28;20494;-60
2023/05/03 06:55:12;;;;;;;15.20;10.40;;;13.80;91.70;;;;;;5099337;27;20477;-61
2023/05/03 06:57:39;;;;;;;21.03;10.30;;;14.00;91.40;;;;;;5082119;28;20482;-61
2023/05/03 07:00:06;;;;;;;17.33;8.70;;;14.20;91.70;;;;;;5086384;27;21134;-61
2023/05/03 07:02:33;;;;;;;13.80;11.33;;;14.30;91.10;;;;;;5078031;28;21033;-61
2023/05/03 07:05:00;;;;;;;16.70;11.10;;;14.50;91.40;;;;;;5089050;27;20529;-61
2023/05/03 07:07:28;;;;;;;14.50;10.10;;;14.50;90.70;;;;;;5119958;27;20964;-60
2023/05/03 07:09:55;;;;;;;19.07;10.97;;;14.60;91.00;;;;;;5075768;27;20861;-61
2023/05/03 07:12:26;;;;;;;14.00;9.70;;;14.90;91.10;;;;;;5092191;27;20502;-61
2023/05/03 07:14:53;;;;;;;9.47;7.50;;;14.90;90.30;;;;;;5082602;28;20477;-61
2023/05/03 07:17:19;;;;;;;16.30;10.40;;;15.00;90.40;;;;;;5073516;28;20654;-61
2023/05/03 07:19:47;;;;;;;20.07;9.50;;;15.10;90.80;;;;;;5079545;28;20562;-61
2023/05/03 07:22:14;;;;;;;19.03;9.27;;;;;;;;;;5079209;28;20497;-61
2023/05/03 07:24:42;;;;;;;17.03;9.60;;;15.30;90.80;;;;;;5099340;27;20470;-61
2023/05/03 07:27:09;;;;;;;14.33;9.30;;;15.50;90.60;;;;;;5090706;28;20594;-61
2023/05/03 07:29:36;;;;;;;13.00;9.93;;;15.50;90.00;;;;;;5088180;28;20518;-61
2023/05/03 07:32:02;;;;;;;14.53;9.30;;;15.50;90.00;;;;;;5084289;27;20494;-61
2023/05/03 07:34:31;;;;;;;11.37;9.13;;;;;;;;;;5073071;28;20479;-61
2023/05/03 07:36:58;;;;;;;13.10;8.97;;;15.80;91.10;;;;;;5077989;28;20584;-61
2023/05/03 07:39:25;;;;;;;18.00;10.27;;;15.90;90.00;;;;;;5085405;28;21133;-61
2023/05/03 07:41:53;;;;;;;22.50;10.10;;;16.10;91.00;;;;;;5085890;27;20474;-60
2023/05/03 07:44:19;;;;;;;10.27;8.17;;;16.20;90.10;;;;;;5078533;28;20890;-59
2023/05/03 07:46:46;;;;;;;10.70;7.90;;;16.30;90.40;;;;;;5078917;28;20489;-60
2023/05/03 07:49:13;;;;;;;18.50;8.90;;;16.40;90.30;;;;;;5082464;28;20469;-63
2023/05/03 07:51:39;;;;;;;12.33;9.47;;;16.30;88.90;;;;;;5083856;28;20481;-61
2023/05/03 07:54:06;;;;;;;8.47;6.70;;;16.50;90.30;;;;;;5113576;27;20961;-61
2023/05/03 07:56:33;;;;;;;19.33;10.17;;;16.50;89.50;;;;;;5062767;28;20730;-61
2023/05/03 07:59:01;;;;;;;17.47;9.20;;;16.70;90.00;;;;;;5081774;28;20482;-61
2023/05/03 08:01:28;;;;;;;14.20;10.83;;;16.90;91.10;;;;;;5067356;27;20528;-61
2023/05/03 08:03:54;;;;;;;13.07;8.10;;;17.20;90.60;;;;;;5107516;27;20562;-61
2023/05/03 08:06:21;;;;;;;10.03;7.67;;;17.30;88.50;;;;;;5080857;27;20496;-61
2023/05/03 08:08:48;;;;;;;10.53;8.10;;;17.40;89.40;;;;;;5092672;28;20481;-61
2023/05/03 08:11:14;;;;;;;15.00;8.40;;;17.50;89.20;;;;;;5088193;28;20500;-61
2023/05/03 08:13:41;;;;;;;11.60;8.00;;;17.60;88.90;;;;;;5084428;28;20542;-61
2023/05/03 08:16:09;;;;;;;13.63;7.87;;;17.50;88.90;;;;;;5087090;27;20971;-62
2023/05/03 08:18:36;;;;;;;13.40;9.20;;;17.60;87.20;;;;;;5080293;27;20484;-62
2023/05/03 08:21:02;;;;;;;20.63;6.93;;;17.70;89.00;;;;;;5085236;27;20478;-62
2023/05/03 08:23:29;;;;;;;11.17;7.53;;;17.80;88.10;;;;;;5071465;28;20474;-62
2023/05/03 08:25:56;;;;;;;16.20;7.63;;;17.80;89.80;;;;;;5074328;28;20540;-62
2023/05/03 08:28:23;;;;;;;13.73;8.77;;;18.00;89.10;;;;;;5081936;28;20490;-62
2023/05/03 08:30:51;;;;;;;8.07;6.97;;;18.00;87.00;;;;;;5077207;28;20489;-62
2023/05/03 08:33:19;;;;;;;15.87;7.37;;;18.20;88.40;;;;;;5066235;28;20475;-62
2023/05/03 08:35:45;;;;;;;9.63;7.90;;;18.30;89.20;;;;;;5067338;28;21478;-62
2023/05/03 08:38:12;;;;;;;10.67;8.17;;;18.30;88.00;;;;;;5082890;28;20474;-62
2023/05/03 08:40:40;;;;;;;18.30;7.50;;;18.70;89.60;;;;;;5077564;27;20549;-62
2023/05/03 08:43:08;;;;;;;8.93;6.90;;;18.80;87.50;;;;;;5106037;27;20474;-62
2023/05/03 08:45:35;;;;;;;9.83;7.73;;;18.80;87.20;;;;;;5096501;27;20983;-62
2023/05/03 08:48:03;;;;;;;16.10;7.70;;;18.90;87.80;;;;;;5090909;28;20566;-61
2023/05/03 08:50:35;;;;;;;11.20;10.00;;;18.80;86.70;;;;;;5075583;28;20486;-62
2023/05/03 08:53:03;;;;;;;12.60;7.40;;;18.90;89.10;;;;;;5078421;28;20933;-61
2023/05/03 08:55:30;;;;;;;16.80;8.70;;;19.20;87.90;;;;;;5080953;27;20505;-61
2023/05/03 08:57:56;;;;;;;9.97;7.50;;;19.20;86.10;;;;;;5098365;27;20808;-62
2023/05/03 09:00:28;;;;;;;11.13;8.67;;;19.50;87.00;;;;;;5090477;27;20474;-61
2023/05/03 09:02:55;;;;;;;13.10;8.30;;;19.60;88.60;;;;;;5084366;27;20508;-62
2023/05/03 09:05:37;;;;;;;11.20;7.60;;;19.80;88.10;;;;;;5079789;28;20528;-61
2023/05/03 09:08:06;;;;;;;17.33;8.00;;;20.00;88.20;;;;;;5093479;28;20575;-62
2023/05/03 09:10:34;;;;;;;16.10;8.13;;;19.80;84.50;;;;;;5094728;28;20509;-62
2023/05/03 09:13:02;;;;;;;9.83;7.80;;;;;;;;;;5083091;27;20998;-62
2023/05/03 09:15:29;;;;;;;11.33;7.50;;;20.30;88.20;;;;;;5076306;28;20480;-61
2023/05/03 09:18:14;;;;;;;7.43;6.60;;;20.30;87.20;;;;;;5076468;28;21011;-62
2023/05/03 09:21:18;;;;;;;15.97;7.27;;;20.40;86.40;;;;;;5087976;28;20825;-63
2023/05/03 09:23:45;;;;;;;11.53;6.30;;;20.40;86.20;;;;;;5064282;28;20488;-62
2023/05/03 09:26:14;;;;;;;9.93;7.50;;;20.50;87.80;;;;;;5090745;28;21058;-63
2023/05/03 09:28:41;;;;;;;9.40;7.03;;;20.50;84.70;;;;;;5085956;28;20459;-62
2023/05/03 09:31:08;;;;;;;16.50;9.10;;;20.30;82.30;;;;;;5087808;28;20479;-62
2023/05/03 09:33:35;;;;;;;12.90;8.50;;;20.40;84.50;;;;;;5070129;28;20728;-62
2023/05/03 09:36:03;;;;;;;11.73;7.37;;;20.30;84.70;;;;;;5068114;28;20714;-63
2023/05/03 09:38:32;;;;;;;16.43;7.77;;;20.40;84.90;;;;;;5074727;28;20499;-62
2023/05/03 09:41:00;;;;;;;8.10;7.30;;;20.30;81.40;;;;;;5081309;28;20481;-63
2023/05/03 09:43:28;;;;;;;15.93;9.87;;;;;;;;;;5084744;27;21082;-62
2023/05/03 09:46:08;;;;;;;24.07;7.80;;;20.50;88.70;;;;;;5077041;28;20482;-63
2023/05/03 09:48:36;;;;;;;10.87;7.83;;;20.60;86.70;;;;;;5092562;28;20473;-62
2023/05/03 09:51:04;;;;;;;9.90;6.60;;;20.80;86.60;;;;;;5076668;28;20558;-63
2023/05/03 09:53:33;;;;;;;9.07;8.27;;;20.90;86.00;;;;;;5069399;28;20790;-63
2023/05/03 09:56:01;;;;;;;10.60;7.47;;;21.00;84.80;;;;;;5087948;28;20453;-63
2023/05/03 09:58:29;;;;;;;14.40;8.27;;;21.00;84.30;;;;;;5078223;28;20479;-63
2023/05/03 10:00:56;;;;;;;10.67;8.27;;;21.00;85.40;;;;;;5073650;28;20489;-64
2023/05/03 10:03:39;;;;;;;12.33;8.80;;;21.10;84.50;;;;;;5092648;28;20866;-63
2023/05/03 10:06:11;;;;;;;9.13;7.50;;;21.30;86.30;;;;;;5083737;28;20829;-63
2023/05/03 10:08:41;;;;;;;9.37;8.40;;;;;;;;;;5076398;28;20874;-63
2023/05/03 10:11:09;;;;;;;7.13;6.43;;;21.70;82.80;;;;;;5076927;28;20479;-63
2023/05/03 10:13:36;;;;;;;12.60;8.10;;;21.60;82.90;;;;;;5071034;28;20483;-63
2023/05/03 10:16:07;;;;;;;9.10;6.80;;;21.50;83.10;;;;;;5075004;28;20885;-63
2023/05/03 10:18:37;;;;;;;9.43;7.40;;;21.50;84.30;;;;;;5068563;28;20522;-63
2023/05/03 10:21:09;;;;;;;7.97;6.93;;;21.60;84.30;;;;;;5080348;28;20466;-63
2023/05/03 10:23:36;;;;;;;12.63;8.57;;;21.60;84.50;;;;;;5077155;28;20578;-63
2023/05/03 10:26:16;;;;;;;7.57;6.40;;;21.70;83.10;;;;;;5083455;28;20960;-64
2023/05/03 10:28:43;;;;;;;7.93;6.53;;;21.90;82.80;;;;;;5071348;28;20767;-63
2023/05/03 10:31:45;;;;;;;8.43;7.27;;;21.80;84.50;;;;;;5078273;28;21073;-63
2023/05/03 10:34:31;;;;;;;10.00;7.30;;;21.90;82.40;;;;;;5077744;28;20561;-63
2023/05/03 10:37:02;;;;;;;7.53;6.03;;;22.10;83.40;;;;;;5089681;27;20510;-64
2023/05/03 10:39:30;;;;;;;14.40;9.23;;;22.20;84.60;;;;;;5078959;28;20449;-63
2023/05/03 10:42:00;;;;;;;7.30;6.60;;;;;;;;;;5081908;27;20831;-63
2023/05/03 10:44:28;;;;;;;8.83;8.00;;;22.10;83.30;;;;;;5077171;28;20555;-63
2023/05/03 10:46:54;;;;;;;8.17;5.00;;;21.80;80.40;;;;;;5085317;28;20460;-63
2023/05/03 10:49:23;;;;;;;8.10;7.37;;;21.80;83.10;;;;;;5090897;27;20883;-63
2023/05/03 10:51:50;;;;;;;15.03;6.30;;;22.00;83.20;;;;;;5082636;27;20478;-63
2023/05/03 10:54:18;;;;;;;8.90;4.90;;;22.20;83.60;;;;;;5088737;28;20568;-63
2023/05/03 10:56:55;;;;;;;7.50;5.67;;;21.70;79.30;;;;;;5080097;28;20459;-62
2023/05/03 10:59:24;;;;;;;10.03;5.80;;;21.90;85.40;;;;;;5074503;28;20467;-63
2023/05/03 11:01:53;;;;;;;7.03;6.20;;;21.80;83.70;;;;;;5095525;27;20541;-63
2023/05/03 11:04:40;;;;;;;9.07;6.60;;;21.70;81.50;;;;;;5081072;28;20497;-63
2023/05/03 11:07:08;;;;;;;8.53;6.87;;;21.80;82.50;;;;;;5073878;28;20441;-64
2023/05/03 11:09:35;;;;;;;7.47;6.77;;;21.90;82.00;;;;;;5078371;28;20536;-63
2023/05/03 11:12:07;;;;;;;16.23;6.57;;;21.70;82.00;;;;;;5088589;28;20658;-64
2023/05/03 11:14:35;;;;;;;10.60;7.23;;;21.80;82.70;;;;;;5094507;27;20480;-63
2023/05/03 11:17:02;;;;;;;19.23;6.20;;;22.00;80.90;;;;;;5080367;27;20801;-64
2023/05/03 11:19:29;;;;;;;9.27;8.47;;;22.10;82.40;;;;;;5078603;28;20827;-63
2023/05/03 11:21:57;;;;;;;6.60;5.73;;;22.10;81.40;;;;;;5077898;28;20972;-63
2023/05/03 11:24:23;;;;;;;10.60;5.47;;;22.20;81.20;;;;;;5089069;27;20481;-63
2023/05/03 11:26:50;;;;;;;5.40;4.90;;;22.20;80.70;;;;;;5081768;28;20801;-64
2023/05/03 11:29:17;;;;;;;6.93;5.80;;;22.20;79.20;;;;;;5079765;28;20591;-63
2023/05/03 11:31:45;;;;;;;12.23;5.70;;;22.10;79.60;;;;;;5085624;28;20469;-63
2023/05/03 11:34:13;;;;;;;7.57;6.00;;;22.20;81.00;;;;;;5086705;28;20460;-64
2023/05/03 11:36:40;;;;;;;6.80;6.20;;;22.20;76.90;;;;;;5077853;28;21019;-63
2023/05/03 11:39:08;;;;;;;9.40;5.40;;;22.60;82.60;;;;;;5075917;28;20543;-64
2023/05/03 11:41:35;;;;;;;6.77;6.10;;;22.70;81.20;;;;;;5091411;28;20496;-63
2023/05/03 11:44:02;;;;;;;7.40;5.90;;;22.70;80.30;;;;;;5087709;28;20861;-63
2023/05/03 11:46:32;;;;;;;17.40;7.67;;;22.70;83.10;;;;;;5077052;28;20483;-63
2023/05/03 11:49:00;;;;;;;7.13;6.47;;;22.70;81.50;;;;;;5077840;28;20873;-63
2023/05/03 11:51:27;;;;;;;7.17;6.57;;;22.80;82.70;;;;;;5071050;27;20481;-63
2023/05/03 11:53:55;;;;;;;8.83;5.23;;;22.40;78.80;;;;;;5114509;27;20446;-63
2023/05/03 11:56:22;;;;;;;8.60;6.67;;;22.50;79.50;;;;;;5094766;27;20521;-63
2023/05/03 11:58:51;;;;;;;7.00;6.27;;;22.50;82.10;;;;;;5071518;27;20473;-63
2023/05/03 12:01:20;;;;;;;14.27;7.47;;;22.40;80.60;;;;;;5085724;28;20904;-63
2023/05/03 12:03:48;;;;;;;6.37;5.87;;;22.60;81.30;;;;;;5078323;28;20485;-63
2023/05/03 12:06:17;;;;;;;7.40;5.70;;;;;;;;;;5063979;28;20464;-63
2023/05/03 12:08:44;;;;;;;8.87;6.67;;;22.90;77.40;;;;;;5095380;27;20486;-63
2023/05/03 12:11:11;;;;;;;7.23;6.47;;;22.80;80.90;;;;;;5073991;28;20452;-63
2023/05/03 12:13:38;;;;;;;8.80;5.83;;;22.70;80.00;;;;;;5080093;28;20482;-63
2023/05/03 12:16:07;;;;;;;9.97;5.03;;;22.70;80.50;;;;;;5077936;28;21170;-63
2023/05/03 12:18:49;;;;;;;7.63;6.97;;;22.70;78.40;;;;;;5077053;28;20472;-63
2023/05/03 12:21:18;;;;;;;10.20;4.70;;;22.80;80.80;;;;;;5076277;28;20956;-64
2023/05/03 12:23:45;;;;;;;6.90;5.43;;;22.80;80.80;;;;;;5081293;28;20471;-64
2023/05/03 12:26:13;;;;;;;8.70;6.87;;;22.80;77.30;;;;;;5101429;27;20473;-64
2023/05/03 12:28:40;;;;;;;6.53;5.60;;;22.80;76.80;;;;;;5076811;28;20575;-64
2023/05/03 12:31:06;;;;;;;7.43;5.20;;;22.90;80.60;;;;;;5089789;28;20482;-64
2023/05/03 12:33:34;;;;;;;7.67;6.63;;;22.70;80.60;;;;;;5078055;28;20470;-64
2023/05/03 12:36:01;;;;;;;7.37;6.43;;;22.80;76.30;;;;;;5070423;28;20481;-64
2023/05/03 12:38:29;;;;;;;7.57;6.80;;;22.80;77.70;;;;;;5094375;27;20491;-64
2023/05/03 12:40:56;;;;;;;8.57;5.87;;;22.70;77.80;;;;;;5087034;28;20453;-62
2023/05/03 12:43:23;;;;;;;6.57;5.47;;;22.70;79.60;;;;;;5078762;28;20516;-62
2023/05/03 12:45:50;;;;;;;7.73;5.50;;;;;;;;;;5079260;28;20827;-63
2023/05/03 12:48:17;;;;;;;8.80;6.13;;;22.70;78.70;;;;;;5079149;28;20564;-64
2023/05/03 12:50:43;;;;;;;6.83;5.90;;;22.80;77.30;;;;;;5079356;28;20492;-63
2023/05/03 12:53:10;;;;;;;8.23;6.17;;;22.90;78.50;;;;;;5077937;27;20916;-64